sensor_id;sensor_type;location;lat;lon;timestamp;temperature;humidity
13711;DHT22;6927;51.256;9.410;2023-09-30T00:01:40;13.30;99.90
13711;DHT22;6927;51.256;9.410;2023-09-30T00:04:14;13.30;99.90
13711;DHT22;6927;51.256;9.410;2023-09-30T00:06:40;13.30;99.90
13711;DHT22;6927;51.256;9.410;2023-09-30T00:12:02;13.20;99.90
13711;DHT22;6927;51.256;9.410;2023-09-30T00:14:57;13.10;99.90
13711;DHT22;6927;51.256;9.410;2023-09-30T00:17:23;13.00;99.90
13711;DHT22;6927;51.256;9.410;2023-09-30T00:19:48;13.00;99.90
13711;DHT22;6927;51.256;9.410;2023-09-30T00:22:20;12.90;99.90
13711;DHT22;6927;51.256;9.410;2023-09-30T00:24:45;12.80;99.90
13711;DHT22;6927;51.256;9.410;2023-09-30T00:27:19;12.70;99.90
13711;DHT22;6927;51.256;9.410;2023-09-30T00:29:45;12.70;99.90
13711;DHT22;6927;51.256;9.410;2023-09-30T00:32:19;12.70;99.90
13711;DHT22;6927;51.256;9.410;2023-09-30T00:34:45;12.70;99.90
13711;DHT22;6927;51.256;9.410;2023-09-30T00:37:19;12.60;99.90
13711;DHT22;6927;51.256;9.410;2023-09-30T00:39:45;12.70;99.90
13711;DHT22;6927;51.256;9.410;2023-09-30T00:42:22;12.70;99.90
13711;DHT22;6927;51.256;9.410;2023-09-30T00:44:48;12.70;99.90
13711;DHT22;6927;51.256;9.410;2023-09-30T00:47:23;12.60;99.90
13711;DHT22;6927;51.256;9.410;2023-09-30T00:50:02;12.70;99.90
13711;DHT22;6927;51.256;9.410;2023-09-30T00:52:30;12.60;99.90
13711;DHT22;6927;51.256;9.410;2023-09-30T00:55:00;12.60;99.90
13711;DHT22;6927;51.256;9.410;2023-09-30T00:57:26;12.60;99.90
13711;DHT22;6927;51.256;9.410;2023-09-30T01:00:00;12.60;99.90
13711;DHT22;6927;51.256;9.410;2023-09-30T01:02:26;12.50;99.90
13711;DHT22;6927;51.256;9.410;2023-09-30T01:04:59;12.50;99.90
13711;DHT22;6927;51.256;9.410;2023-09-30T01:07:25;12.40;99.90
13711;DHT22;6927;51.256;9.410;2023-09-30T01:10:19;12.40;99.90
13711;DHT22;6927;51.256;9.410;2023-09-30T01:12:48;12.40;99.90
13711;DHT22;6927;51.256;9.410;2023-09-30T01:15:25;12.30;99.90
13711;DHT22;6927;51.256;9.410;2023-09-30T01:17:50;12.20;99.90
13711;DHT22;6927;51.256;9.410;2023-09-30T01:20:22;12.20;99.90
13711;DHT22;6927;51.256;9.410;2023-09-30T01:22:49;12.10;99.90
13711;DHT22;6927;51.256;9.410;2023-09-30T01:25:22;12.00;99.90
13711;DHT22;6927;51.256;9.410;2023-09-30T01:27:48;11.90;99.90
13711;DHT22;6927;51.256;9.410;2023-09-30T01:30:22;11.90;99.90
13711;DHT22;6927;51.256;9.410;2023-09-30T01:32:48;11.80;99.90
13711;DHT22;6927;51.256;9.410;2023-09-30T01:35:44;11.80;99.90
13711;DHT22;6927;51.256;9.410;2023-09-30T01:38:10;11.70;99.90
13711;DHT22;6927;51.256;9.410;2023-09-30T01:40:42;11.60;99.90
13711;DHT22;6927;51.256;9.410;2023-09-30T01:43:08;11.50;99.90
13711;DHT22;6927;51.256;9.410;2023-09-30T01:45:36;11.50;99.90
13711;DHT22;6927;51.256;9.410;2023-09-30T01:48:05;11.40;99.90
13711;DHT22;6927;51.256;9.410;2023-09-30T01:50:31;11.40;99.90
13711;DHT22;6927;51.256;9.410;2023-09-30T01:53:08;11.40;99.90
13711;DHT22;6927;51.256;9.410;2023-09-30T01:55:40;11.40;99.90
13711;DHT22;6927;51.256;9.410;2023-09-30T01:58:05;11.40;99.90
13711;DHT22;6927;51.256;9.410;2023-09-30T02:00:31;11.30;99.90
13711;DHT22;6927;51.256;9.410;2023-09-30T02:03:06;11.30;99.90
13711;DHT22;6927;51.256;9.410;2023-09-30T02:05:32;11.30;99.90
13711;DHT22;6927;51.256;9.410;2023-09-30T02:08:05;11.40;99.90
13711;DHT22;6927;51.256;9.410;2023-09-30T02:10:32;11.30;99.90
13711;DHT22;6927;51.256;9.410;2023-09-30T02:13:04;11.30;99.90
13711;DHT22;6927;51.256;9.410;2023-09-30T02:15:31;11.20;99.90
13711;DHT22;6927;51.256;9.410;2023-09-30T02:17:57;11.30;99.90
13711;DHT22;6927;51.256;9.410;2023-09-30T02:20:25;11.30;99.90
13711;DHT22;6927;51.256;9.410;2023-09-30T02:23:03;11.30;99.90
13711;DHT22;6927;51.256;9.410;2023-09-30T02:25:34;11.20;99.90
13711;DHT22;6927;51.256;9.410;2023-09-30T02:28:02;11.20;99.90
13711;DHT22;6927;51.256;9.410;2023-09-30T02:30:29;11.20;99.90
13711;DHT22;6927;51.256;9.410;2023-09-30T02:32:56;11.20;99.90
13711;DHT22;6927;51.256;9.410;2023-09-30T02:35:48;11.20;99.90
13711;DHT22;6927;51.256;9.410;2023-09-30T02:38:18;11.20;99.90
13711;DHT22;6927;51.256;9.410;2023-09-30T02:40:47;11.20;99.90
13711;DHT22;6927;51.256;9.410;2023-09-30T02:43:14;11.20;99.90
13711;DHT22;6927;51.256;9.410;2023-09-30T02:45:44;11.20;99.90
13711;DHT22;6927;51.256;9.410;2023-09-30T02:48:10;11.20;99.90
13711;DHT22;6927;51.256;9.410;2023-09-30T02:50:35;11.20;99.90
13711;DHT22;6927;51.256;9.410;2023-09-30T02:53:07;11.20;99.90
13711;DHT22;6927;51.256;9.410;2023-09-30T02:55:33;11.20;99.90
13711;DHT22;6927;51.256;9.410;2023-09-30T02:57:59;11.20;99.90
13711;DHT22;6927;51.256;9.410;2023-09-30T03:00:35;11.20;99.90
13711;DHT22;6927;51.256;9.410;2023-09-30T03:03:04;11.20;99.90
13711;DHT22;6927;51.256;9.410;2023-09-30T03:05:35;11.20;99.90
13711;DHT22;6927;51.256;9.410;2023-09-30T03:08:10;11.10;99.90
13711;DHT22;6927;51.256;9.410;2023-09-30T03:10:36;11.10;99.90
13711;DHT22;6927;51.256;9.410;2023-09-30T03:13:19;11.00;99.90
13711;DHT22;6927;51.256;9.410;2023-09-30T03:15:47;11.00;99.90
13711;DHT22;6927;51.256;9.410;2023-09-30T03:18:16;11.00;99.90
13711;DHT22;6927;51.256;9.410;2023-09-30T03:20:50;11.00;99.90
13711;DHT22;6927;51.256;9.410;2023-09-30T03:23:16;11.00;99.90
13711;DHT22;6927;51.256;9.410;2023-09-30T03:25:50;11.00;99.90
13711;DHT22;6927;51.256;9.410;2023-09-30T03:28:16;11.00;99.90
13711;DHT22;6927;51.256;9.410;2023-09-30T03:30:51;11.00;99.90
13711;DHT22;6927;51.256;9.410;2023-09-30T03:33:16;11.00;99.90
13711;DHT22;6927;51.256;9.410;2023-09-30T03:35:42;11.00;99.90
13711;DHT22;6927;51.256;9.410;2023-09-30T03:38:16;11.00;99.90
13711;DHT22;6927;51.256;9.410;2023-09-30T03:40:46;11.00;99.90
13711;DHT22;6927;51.256;9.410;2023-09-30T03:46:10;10.90;99.90
13711;DHT22;6927;51.256;9.410;2023-09-30T03:48:38;10.90;99.90
13711;DHT22;6927;51.256;9.410;2023-09-30T03:51:11;11.00;99.90
13711;DHT22;6927;51.256;9.410;2023-09-30T03:53:44;11.00;99.90
13711;DHT22;6927;51.256;9.410;2023-09-30T03:56:11;11.00;99.90
13711;DHT22;6927;51.256;9.410;2023-09-30T03:58:40;11.00;99.90
13711;DHT22;6927;51.256;9.410;2023-09-30T04:01:07;11.00;99.90
13711;DHT22;6927;51.256;9.410;2023-09-30T04:03:33;11.00;99.90
13711;DHT22;6927;51.256;9.410;2023-09-30T04:06:00;11.00;99.90
13711;DHT22;6927;51.256;9.410;2023-09-30T04:08:29;11.00;99.90
13711;DHT22;6927;51.256;9.410;2023-09-30T04:10:54;11.00;99.90
13711;DHT22;6927;51.256;9.410;2023-09-30T04:13:20;10.90;99.90
13711;DHT22;6927;51.256;9.410;2023-09-30T04:15:46;10.90;99.90
13711;DHT22;6927;51.256;9.410;2023-09-30T04:18:12;10.80;99.90
13711;DHT22;6927;51.256;9.410;2023-09-30T04:20:38;10.80;99.90
13711;DHT22;6927;51.256;9.410;2023-09-30T04:23:08;10.70;99.90
13711;DHT22;6927;51.256;9.410;2023-09-30T04:25:35;10.60;99.90
13711;DHT22;6927;51.256;9.410;2023-09-30T04:28:01;10.60;99.90
13711;DHT22;6927;51.256;9.410;2023-09-30T04:30:29;10.60;99.90
13711;DHT22;6927;51.256;9.410;2023-09-30T04:32:54;10.60;99.90
13711;DHT22;6927;51.256;9.410;2023-09-30T04:35:20;10.60;99.90
13711;DHT22;6927;51.256;9.410;2023-09-30T04:37:47;10.60;99.90
13711;DHT22;6927;51.256;9.410;2023-09-30T04:40:12;10.60;99.90
13711;DHT22;6927;51.256;9.410;2023-09-30T04:42:42;10.50;99.90
13711;DHT22;6927;51.256;9.410;2023-09-30T04:45:09;10.50;99.90
13711;DHT22;6927;51.256;9.410;2023-09-30T04:47:35;10.50;99.90
13711;DHT22;6927;51.256;9.410;2023-09-30T04:50:03;10.50;99.90
13711;DHT22;6927;51.256;9.410;2023-09-30T04:52:30;10.50;99.90
13711;DHT22;6927;51.256;9.410;2023-09-30T04:54:56;10.50;99.90
13711;DHT22;6927;51.256;9.410;2023-09-30T04:57:22;10.50;99.90
13711;DHT22;6927;51.256;9.410;2023-09-30T04:59:47;10.40;99.90
13711;DHT22;6927;51.256;9.410;2023-09-30T05:02:13;10.40;99.90
13711;DHT22;6927;51.256;9.410;2023-09-30T05:04:43;10.40;99.90
13711;DHT22;6927;51.256;9.410;2023-09-30T05:07:09;10.40;99.90
13711;DHT22;6927;51.256;9.410;2023-09-30T05:09:34;10.30;99.90
13711;DHT22;6927;51.256;9.410;2023-09-30T05:12:00;10.30;99.90
13711;DHT22;6927;51.256;9.410;2023-09-30T05:14:25;10.30;99.90
13711;DHT22;6927;51.256;9.410;2023-09-30T05:16:54;10.20;99.90
13711;DHT22;6927;51.256;9.410;2023-09-30T05:19:19;10.20;99.90
13711;DHT22;6927;51.256;9.410;2023-09-30T05:21:46;10.20;99.90
13711;DHT22;6927;51.256;9.410;2023-09-30T05:24:12;10.10;99.90
13711;DHT22;6927;51.256;9.410;2023-09-30T05:26:38;10.10;99.90
13711;DHT22;6927;51.256;9.410;2023-09-30T05:29:03;10.10;99.90
13711;DHT22;6927;51.256;9.410;2023-09-30T05:31:29;10.00;99.90
13711;DHT22;6927;51.256;9.410;2023-09-30T05:33:54;9.90;99.90
13711;DHT22;6927;51.256;9.410;2023-09-30T05:36:20;9.90;99.90
13711;DHT22;6927;51.256;9.410;2023-09-30T05:38:46;9.80;99.90
13711;DHT22;6927;51.256;9.410;2023-09-30T05:41:14;9.80;99.90
13711;DHT22;6927;51.256;9.410;2023-09-30T05:43:40;9.80;99.90
13711;DHT22;6927;51.256;9.410;2023-09-30T05:46:09;9.80;99.90
13711;DHT22;6927;51.256;9.410;2023-09-30T05:48:34;9.80;99.90
13711;DHT22;6927;51.256;9.410;2023-09-30T05:51:00;9.80;99.90
13711;DHT22;6927;51.256;9.410;2023-09-30T05:53:26;9.80;99.90
13711;DHT22;6927;51.256;9.410;2023-09-30T05:55:53;9.70;99.90
13711;DHT22;6927;51.256;9.410;2023-09-30T05:58:19;9.80;99.90
13711;DHT22;6927;51.256;9.410;2023-09-30T06:00:44;9.80;99.90
13711;DHT22;6927;51.256;9.410;2023-09-30T06:03:10;9.80;99.90
13711;DHT22;6927;51.256;9.410;2023-09-30T06:05:39;9.90;99.90
13711;DHT22;6927;51.256;9.410;2023-09-30T06:08:06;9.90;99.90
13711;DHT22;6927;51.256;9.410;2023-09-30T06:10:34;10.00;99.90
13711;DHT22;6927;51.256;9.410;2023-09-30T06:13:01;10.00;99.90
13711;DHT22;6927;51.256;9.410;2023-09-30T06:15:27;10.00;99.90
13711;DHT22;6927;51.256;9.410;2023-09-30T06:17:57;10.00;99.90
13711;DHT22;6927;51.256;9.410;2023-09-30T06:20:23;10.10;99.90
13711;DHT22;6927;51.256;9.410;2023-09-30T06:22:51;10.10;99.90
13711;DHT22;6927;51.256;9.410;2023-09-30T06:25:19;10.20;99.90
13711;DHT22;6927;51.256;9.410;2023-09-30T06:27:46;10.30;99.90
13711;DHT22;6927;51.256;9.410;2023-09-30T06:30:14;10.40;99.90
13711;DHT22;6927;51.256;9.410;2023-09-30T06:32:41;10.40;99.90
13711;DHT22;6927;51.256;9.410;2023-09-30T06:35:08;10.50;99.90
13711;DHT22;6927;51.256;9.410;2023-09-30T06:37:36;10.50;99.90
13711;DHT22;6927;51.256;9.410;2023-09-30T06:40:04;10.50;99.90
13711;DHT22;6927;51.256;9.410;2023-09-30T06:42:30;10.40;99.90
13711;DHT22;6927;51.256;9.410;2023-09-30T06:44:56;10.40;99.90
13711;DHT22;6927;51.256;9.410;2023-09-30T06:47:22;10.50;99.90
13711;DHT22;6927;51.256;9.410;2023-09-30T06:49:49;10.50;99.90
13711;DHT22;6927;51.256;9.410;2023-09-30T06:52:15;10.60;99.90
13711;DHT22;6927;51.256;9.410;2023-09-30T06:54:40;10.70;99.90
13711;DHT22;6927;51.256;9.410;2023-09-30T06:57:06;10.90;99.90
13711;DHT22;6927;51.256;9.410;2023-09-30T06:59:34;11.10;99.90
13711;DHT22;6927;51.256;9.410;2023-09-30T07:01:59;11.30;99.90
13711;DHT22;6927;51.256;9.410;2023-09-30T07:04:25;11.50;99.90
13711;DHT22;6927;51.256;9.410;2023-09-30T07:06:53;11.50;99.90
13711;DHT22;6927;51.256;9.410;2023-09-30T07:09:18;11.60;99.90
13711;DHT22;6927;51.256;9.410;2023-09-30T07:11:45;11.70;99.90
13711;DHT22;6927;51.256;9.410;2023-09-30T07:14:11;11.80;99.90
13711;DHT22;6927;51.256;9.410;2023-09-30T07:16:36;11.90;99.90
13711;DHT22;6927;51.256;9.410;2023-09-30T07:19:02;12.00;99.90
13711;DHT22;6927;51.256;9.410;2023-09-30T07:21:28;12.10;99.90
13711;DHT22;6927;51.256;9.410;2023-09-30T07:23:54;12.20;99.90
13711;DHT22;6927;51.256;9.410;2023-09-30T07:26:26;12.30;99.90
13711;DHT22;6927;51.256;9.410;2023-09-30T07:28:53;12.40;99.90
13711;DHT22;6927;51.256;9.410;2023-09-30T07:31:19;12.40;99.90
13711;DHT22;6927;51.256;9.410;2023-09-30T07:33:45;12.50;99.90
13711;DHT22;6927;51.256;9.410;2023-09-30T07:36:11;12.70;99.90
13711;DHT22;6927;51.256;9.410;2023-09-30T07:38:38;12.90;99.90
13711;DHT22;6927;51.256;9.410;2023-09-30T07:41:07;13.10;99.90
13711;DHT22;6927;51.256;9.410;2023-09-30T07:43:38;13.30;99.90
13711;DHT22;6927;51.256;9.410;2023-09-30T07:46:07;13.50;99.90
13711;DHT22;6927;51.256;9.410;2023-09-30T07:48:34;13.70;99.90
13711;DHT22;6927;51.256;9.410;2023-09-30T07:51:00;13.70;99.90
13711;DHT22;6927;51.256;9.410;2023-09-30T07:53:27;13.80;99.90
13711;DHT22;6927;51.256;9.410;2023-09-30T07:55:52;14.20;99.90
13711;DHT22;6927;51.256;9.410;2023-09-30T07:58:19;14.70;99.90
13711;DHT22;6927;51.256;9.410;2023-09-30T08:00:45;15.20;99.90
13711;DHT22;6927;51.256;9.410;2023-09-30T08:03:11;15.70;99.90
13711;DHT22;6927;51.256;9.410;2023-09-30T08:05:37;15.60;99.90
13711;DHT22;6927;51.256;9.410;2023-09-30T08:08:03;15.50;99.90
13711;DHT22;6927;51.256;9.410;2023-09-30T08:10:29;15.50;99.90
13711;DHT22;6927;51.256;9.410;2023-09-30T08:12:57;15.60;99.90
13711;DHT22;6927;51.256;9.410;2023-09-30T08:15:24;15.80;99.90
13711;DHT22;6927;51.256;9.410;2023-09-30T08:17:49;15.90;99.90
13711;DHT22;6927;51.256;9.410;2023-09-30T08:20:15;15.90;99.90
13711;DHT22;6927;51.256;9.410;2023-09-30T08:22:41;15.70;99.90
13711;DHT22;6927;51.256;9.410;2023-09-30T08:25:07;15.60;99.90
13711;DHT22;6927;51.256;9.410;2023-09-30T08:27:33;15.80;99.90
13711;DHT22;6927;51.256;9.410;2023-09-30T08:29:59;16.40;99.90
13711;DHT22;6927;51.256;9.410;2023-09-30T08:32:25;17.10;99.90
13711;DHT22;6927;51.256;9.410;2023-09-30T08:34:50;17.50;99.90
13711;DHT22;6927;51.256;9.410;2023-09-30T08:37:16;17.50;99.90
13711;DHT22;6927;51.256;9.410;2023-09-30T08:39:42;17.40;99.90
13711;DHT22;6927;51.256;9.410;2023-09-30T08:42:09;18.00;99.90
13711;DHT22;6927;51.256;9.410;2023-09-30T08:44:38;18.80;99.90
13711;DHT22;6927;51.256;9.410;2023-09-30T08:47:07;19.70;99.90
13711;DHT22;6927;51.256;9.410;2023-09-30T08:49:39;20.50;99.90
13711;DHT22;6927;51.256;9.410;2023-09-30T08:52:06;21.60;99.90
13711;DHT22;6927;51.256;9.410;2023-09-30T08:54:32;22.50;99.90
13711;DHT22;6927;51.256;9.410;2023-09-30T08:56:58;23.00;99.90
13711;DHT22;6927;51.256;9.410;2023-09-30T08:59:25;23.20;99.90
13711;DHT22;6927;51.256;9.410;2023-09-30T09:01:52;23.20;99.90
13711;DHT22;6927;51.256;9.410;2023-09-30T09:04:18;23.00;99.90
13711;DHT22;6927;51.256;9.410;2023-09-30T09:06:43;23.00;99.90
13711;DHT22;6927;51.256;9.410;2023-09-30T09:09:18;23.30;99.90
13711;DHT22;6927;51.256;9.410;2023-09-30T09:11:45;23.60;99.90
13711;DHT22;6927;51.256;9.410;2023-09-30T09:14:11;24.20;99.90
13711;DHT22;6927;51.256;9.410;2023-09-30T09:16:37;24.20;99.90
13711;DHT22;6927;51.256;9.410;2023-09-30T09:19:15;23.80;99.90
13711;DHT22;6927;51.256;9.410;2023-09-30T09:22:01;24.20;99.90
13711;DHT22;6927;51.256;9.410;2023-09-30T09:24:37;24.40;99.90
13711;DHT22;6927;51.256;9.410;2023-09-30T09:27:11;24.10;99.90
13711;DHT22;6927;51.256;9.410;2023-09-30T09:29:38;24.50;99.90
13711;DHT22;6927;51.256;9.410;2023-09-30T09:32:15;23.90;99.90
13711;DHT22;6927;51.256;9.410;2023-09-30T09:34:42;23.60;99.90
13711;DHT22;6927;51.256;9.410;2023-09-30T09:37:18;24.10;99.90
13711;DHT22;6927;51.256;9.410;2023-09-30T09:39:51;24.90;99.90
13711;DHT22;6927;51.256;9.410;2023-09-30T09:42:30;25.70;99.90
13711;DHT22;6927;51.256;9.410;2023-09-30T09:45:01;26.60;99.90
13711;DHT22;6927;51.256;9.410;2023-09-30T09:47:29;27.40;99.90
13711;DHT22;6927;51.256;9.410;2023-09-30T09:49:57;26.70;99.90
13711;DHT22;6927;51.256;9.410;2023-09-30T09:52:23;25.00;99.90
13711;DHT22;6927;51.256;9.410;2023-09-30T09:54:50;23.30;99.90
13711;DHT22;6927;51.256;9.410;2023-09-30T09:57:17;22.40;99.90
13711;DHT22;6927;51.256;9.410;2023-09-30T09:59:45;21.70;99.90
13711;DHT22;6927;51.256;9.410;2023-09-30T10:02:14;20.80;99.90
13711;DHT22;6927;51.256;9.410;2023-09-30T10:04:41;20.00;99.90
13711;DHT22;6927;51.256;9.410;2023-09-30T10:07:10;19.80;99.90
13711;DHT22;6927;51.256;9.410;2023-09-30T10:09:39;19.50;99.90
13711;DHT22;6927;51.256;9.410;2023-09-30T10:12:07;19.40;99.90
13711;DHT22;6927;51.256;9.410;2023-09-30T10:14:34;19.30;99.90
13711;DHT22;6927;51.256;9.410;2023-09-30T10:17:01;19.50;99.90
13711;DHT22;6927;51.256;9.410;2023-09-30T10:19:29;19.20;99.90
13711;DHT22;6927;51.256;9.410;2023-09-30T10:24:51;19.20;99.90
13711;DHT22;6927;51.256;9.410;2023-09-30T10:35:41;18.60;99.90
13711;DHT22;6927;51.256;9.410;2023-09-30T10:40:58;18.90;99.90
13711;DHT22;6927;51.256;9.410;2023-09-30T10:46:03;19.20;99.90
13711;DHT22;6927;51.256;9.410;2023-09-30T10:48:33;19.30;99.90
13711;DHT22;6927;51.256;9.410;2023-09-30T10:51:13;19.50;99.90
13711;DHT22;6927;51.256;9.410;2023-09-30T10:53:53;20.20;99.90
13711;DHT22;6927;51.256;9.410;2023-09-30T10:56:22;21.30;99.90
13711;DHT22;6927;51.256;9.410;2023-09-30T10:58:52;22.50;99.90
13711;DHT22;6927;51.256;9.410;2023-09-30T11:01:22;23.10;99.90
13711;DHT22;6927;51.256;9.410;2023-09-30T11:03:49;23.70;99.90
13711;DHT22;6927;51.256;9.410;2023-09-30T11:06:19;24.10;99.90
13711;DHT22;6927;51.256;9.410;2023-09-30T11:08:59;24.80;99.90
13711;DHT22;6927;51.256;9.410;2023-09-30T11:11:33;25.00;99.90
13711;DHT22;6927;51.256;9.410;2023-09-30T11:13:59;24.80;99.90
13711;DHT22;6927;51.256;9.410;2023-09-30T11:16:25;23.90;99.90
13711;DHT22;6927;51.256;9.410;2023-09-30T11:18:54;23.60;99.90
13711;DHT22;6927;51.256;9.410;2023-09-30T11:21:23;23.00;99.90
13711;DHT22;6927;51.256;9.410;2023-09-30T11:23:52;22.40;99.90
13711;DHT22;6927;51.256;9.410;2023-09-30T11:26:29;22.00;99.90
13711;DHT22;6927;51.256;9.410;2023-09-30T11:29:05;21.60;99.90
13711;DHT22;6927;51.256;9.410;2023-09-30T11:31:32;21.60;99.90
13711;DHT22;6927;51.256;9.410;2023-09-30T11:34:05;21.80;99.90
13711;DHT22;6927;51.256;9.410;2023-09-30T11:36:37;21.60;99.90
13711;DHT22;6927;51.256;9.410;2023-09-30T11:39:08;21.40;99.90
13711;DHT22;6927;51.256;9.410;2023-09-30T11:41:39;21.40;99.90
13711;DHT22;6927;51.256;9.410;2023-09-30T11:46:46;21.70;99.90
13711;DHT22;6927;51.256;9.410;2023-09-30T11:49:36;22.20;99.90
13711;DHT22;6927;51.256;9.410;2023-09-30T11:52:27;22.70;99.90
13711;DHT22;6927;51.256;9.410;2023-09-30T11:54:53;23.10;99.90
13711;DHT22;6927;51.256;9.410;2023-09-30T11:57:41;23.10;99.90
13711;DHT22;6927;51.256;9.410;2023-09-30T12:00:20;23.00;99.90
13711;DHT22;6927;51.256;9.410;2023-09-30T12:02:54;23.00;99.90
13711;DHT22;6927;51.256;9.410;2023-09-30T12:05:20;23.00;99.90
13711;DHT22;6927;51.256;9.410;2023-09-30T12:07:50;22.90;99.90
13711;DHT22;6927;51.256;9.410;2023-09-30T12:10:27;23.00;99.90
13711;DHT22;6927;51.256;9.410;2023-09-30T12:12:53;23.30;99.90
13711;DHT22;6927;51.256;9.410;2023-09-30T12:15:19;23.50;99.90
13711;DHT22;6927;51.256;9.410;2023-09-30T12:17:45;23.50;99.90
13711;DHT22;6927;51.256;9.410;2023-09-30T12:20:11;23.40;99.90
13711;DHT22;6927;51.256;9.410;2023-09-30T12:22:39;22.90;99.90
13711;DHT22;6927;51.256;9.410;2023-09-30T12:25:06;22.70;99.90
13711;DHT22;6927;51.256;9.410;2023-09-30T12:27:33;22.40;99.90
13711;DHT22;6927;51.256;9.410;2023-09-30T12:29:59;21.80;99.90
13711;DHT22;6927;51.256;9.410;2023-09-30T12:32:25;21.60;99.90
13711;DHT22;6927;51.256;9.410;2023-09-30T12:34:56;21.40;99.90
13711;DHT22;6927;51.256;9.410;2023-09-30T12:37:22;21.50;99.90
13711;DHT22;6927;51.256;9.410;2023-09-30T12:39:48;21.90;99.90
13711;DHT22;6927;51.256;9.410;2023-09-30T12:42:17;22.00;99.90
13711;DHT22;6927;51.256;9.410;2023-09-30T12:44:42;21.70;99.90
13711;DHT22;6927;51.256;9.410;2023-09-30T12:47:08;21.30;99.90
13711;DHT22;6927;51.256;9.410;2023-09-30T12:49:33;21.10;99.90
13711;DHT22;6927;51.256;9.410;2023-09-30T12:51:59;20.90;99.90
13711;DHT22;6927;51.256;9.410;2023-09-30T12:54:25;20.90;99.90
13711;DHT22;6927;51.256;9.410;2023-09-30T12:56:51;20.90;99.90
13711;DHT22;6927;51.256;9.410;2023-09-30T12:59:17;20.70;99.90
13711;DHT22;6927;51.256;9.410;2023-09-30T13:01:43;20.60;99.90
13711;DHT22;6927;51.256;9.410;2023-09-30T13:04:09;20.40;99.90
13711;DHT22;6927;51.256;9.410;2023-09-30T13:06:36;20.20;99.90
13711;DHT22;6927;51.256;9.410;2023-09-30T13:09:02;20.10;99.90
13711;DHT22;6927;51.256;9.410;2023-09-30T13:11:30;19.80;99.90
13711;DHT22;6927;51.256;9.410;2023-09-30T13:13:55;19.70;99.90
13711;DHT22;6927;51.256;9.410;2023-09-30T13:16:21;19.70;99.90
13711;DHT22;6927;51.256;9.410;2023-09-30T13:18:47;19.90;99.90
13711;DHT22;6927;51.256;9.410;2023-09-30T13:21:13;20.00;99.90
13711;DHT22;6927;51.256;9.410;2023-09-30T13:23:39;20.00;99.90
13711;DHT22;6927;51.256;9.410;2023-09-30T13:26:04;20.00;99.90
13711;DHT22;6927;51.256;9.410;2023-09-30T13:28:30;20.20;99.90
13711;DHT22;6927;51.256;9.410;2023-09-30T13:30:56;20.40;99.90
13711;DHT22;6927;51.256;9.410;2023-09-30T13:33:22;20.30;99.90
13711;DHT22;6927;51.256;9.410;2023-09-30T13:35:47;20.20;99.90
13711;DHT22;6927;51.256;9.410;2023-09-30T13:38:13;19.90;99.90
13711;DHT22;6927;51.256;9.410;2023-09-30T13:40:39;19.70;99.90
13711;DHT22;6927;51.256;9.410;2023-09-30T13:43:05;19.80;99.90
13711;DHT22;6927;51.256;9.410;2023-09-30T13:45:31;20.30;99.90
13711;DHT22;6927;51.256;9.410;2023-09-30T13:47:56;20.70;99.90
13711;DHT22;6927;51.256;9.410;2023-09-30T13:50:22;21.00;99.90
13711;DHT22;6927;51.256;9.410;2023-09-30T13:52:47;20.60;99.90
13711;DHT22;6927;51.256;9.410;2023-09-30T13:55:13;20.20;99.90
13711;DHT22;6927;51.256;9.410;2023-09-30T13:57:47;20.40;99.90
13711;DHT22;6927;51.256;9.410;2023-09-30T14:00:14;20.90;99.90
13711;DHT22;6927;51.256;9.410;2023-09-30T14:02:40;21.40;99.90
13711;DHT22;6927;51.256;9.410;2023-09-30T14:05:06;21.60;99.90
13711;DHT22;6927;51.256;9.410;2023-09-30T14:07:35;21.90;99.90
13711;DHT22;6927;51.256;9.410;2023-09-30T14:10:02;21.60;99.90
13711;DHT22;6927;51.256;9.410;2023-09-30T14:12:28;21.20;99.90
13711;DHT22;6927;51.256;9.410;2023-09-30T14:14:54;21.00;99.90
13711;DHT22;6927;51.256;9.410;2023-09-30T14:17:20;20.90;99.90
13711;DHT22;6927;51.256;9.410;2023-09-30T14:19:46;21.10;99.90
13711;DHT22;6927;51.256;9.410;2023-09-30T14:22:11;21.20;99.90
13711;DHT22;6927;51.256;9.410;2023-09-30T14:24:37;21.30;99.90
13711;DHT22;6927;51.256;9.410;2023-09-30T14:27:03;21.40;99.90
13711;DHT22;6927;51.256;9.410;2023-09-30T14:29:31;21.50;99.90
13711;DHT22;6927;51.256;9.410;2023-09-30T14:31:57;21.60;99.90
13711;DHT22;6927;51.256;9.410;2023-09-30T14:34:23;21.60;99.90
13711;DHT22;6927;51.256;9.410;2023-09-30T14:36:49;21.30;99.90
13711;DHT22;6927;51.256;9.410;2023-09-30T14:39:15;21.10;99.90
13711;DHT22;6927;51.256;9.410;2023-09-30T14:41:44;20.70;99.90
13711;DHT22;6927;51.256;9.410;2023-09-30T14:44:10;20.40;99.90
13711;DHT22;6927;51.256;9.410;2023-09-30T14:46:38;20.40;99.90
13711;DHT22;6927;51.256;9.410;2023-09-30T14:49:04;20.20;99.90
13711;DHT22;6927;51.256;9.410;2023-09-30T14:51:31;20.40;99.90
13711;DHT22;6927;51.256;9.410;2023-09-30T14:53:57;21.10;99.90
13711;DHT22;6927;51.256;9.410;2023-09-30T14:56:22;22.10;99.90
13711;DHT22;6927;51.256;9.410;2023-09-30T14:58:48;22.80;99.90
13711;DHT22;6927;51.256;9.410;2023-09-30T15:01:14;23.20;99.90
13711;DHT22;6927;51.256;9.410;2023-09-30T15:03:39;23.30;99.90
13711;DHT22;6927;51.256;9.410;2023-09-30T15:06:05;23.60;99.90
13711;DHT22;6927;51.256;9.410;2023-09-30T15:08:32;23.30;99.90
13711;DHT22;6927;51.256;9.410;2023-09-30T15:11:01;22.50;99.90
13711;DHT22;6927;51.256;9.410;2023-09-30T15:13:27;21.80;99.90
13711;DHT22;6927;51.256;9.410;2023-09-30T15:15:53;21.30;99.90
13711;DHT22;6927;51.256;9.410;2023-09-30T15:18:19;20.90;99.90
13711;DHT22;6927;51.256;9.410;2023-09-30T15:20:45;20.50;99.90
13711;DHT22;6927;51.256;9.410;2023-09-30T15:23:12;20.10;99.90
13711;DHT22;6927;51.256;9.410;2023-09-30T15:25:41;19.80;99.90
13711;DHT22;6927;51.256;9.410;2023-09-30T15:28:08;19.50;99.90
13711;DHT22;6927;51.256;9.410;2023-09-30T15:30:34;19.40;99.90
13711;DHT22;6927;51.256;9.410;2023-09-30T15:32:59;19.30;99.90
13711;DHT22;6927;51.256;9.410;2023-09-30T15:35:27;19.30;99.90
13711;DHT22;6927;51.256;9.410;2023-09-30T15:37:52;19.30;99.90
13711;DHT22;6927;51.256;9.410;2023-09-30T15:40:18;19.30;99.90
13711;DHT22;6927;51.256;9.410;2023-09-30T15:42:44;19.30;99.90
13711;DHT22;6927;51.256;9.410;2023-09-30T15:45:11;19.20;99.90
13711;DHT22;6927;51.256;9.410;2023-09-30T15:47:38;19.20;99.90
13711;DHT22;6927;51.256;9.410;2023-09-30T15:50:04;19.40;99.90
13711;DHT22;6927;51.256;9.410;2023-09-30T15:52:31;19.40;99.90
13711;DHT22;6927;51.256;9.410;2023-09-30T15:54:57;19.40;99.90
13711;DHT22;6927;51.256;9.410;2023-09-30T15:57:22;19.50;99.90
13711;DHT22;6927;51.256;9.410;2023-09-30T15:59:48;19.50;99.90
13711;DHT22;6927;51.256;9.410;2023-09-30T16:02:15;19.40;99.90
13711;DHT22;6927;51.256;9.410;2023-09-30T16:04:41;19.30;99.90
13711;DHT22;6927;51.256;9.410;2023-09-30T16:07:06;18.90;99.90
13711;DHT22;6927;51.256;9.410;2023-09-30T16:09:32;18.70;99.90
13711;DHT22;6927;51.256;9.410;2023-09-30T16:12:00;18.40;99.90
13711;DHT22;6927;51.256;9.410;2023-09-30T16:14:27;18.30;99.90
13711;DHT22;6927;51.256;9.410;2023-09-30T16:16:53;18.00;99.90
13711;DHT22;6927;51.256;9.410;2023-09-30T16:19:20;17.80;99.90